Overseas Mindoro — V7RE6 — position and weather

sailwx.info

Track history (hours):
 
Tides and Currents Weather Stations Pressure Air Temp Water Temp Dewpoint Dewpoint Depression Visibility Wind Speed Wind Dir Waves Ship Positions

Overseas Mindoro

Last reported at 2014-Oct-22 10:29 UTC. Time now 2014-Oct-23 17:57 UTC.
Position N 29°43' W 117°25'.

Length 238 m; draft 8.2 m.

Type: Tanker. MMSI: 538003473.

Date/timePositionNaut miles runAvg speedWind from/ knotsBaromVisibWave heightAir tempDewpointWater temp
2014-Oct-22 10:29N 29°43' W 117°25'67 9.6
2014-Oct-22 03:31N 30°50' W 117°26'10 9.8
2014-Oct-22 02:29N 31°00' W 117°27'910.1
2014-Oct-22 01:33N 31°10' W 117°28'1010.1
2014-Oct-22 00:33N 31°18' W 117°34'10 9.8
2014-Oct-21 23:33N 31°27' W 117°38'1010.0
2014-Oct-21 22:33N 31°37' W 117°38'10 9.8
2014-Oct-21 21:33N 31°47' W 117°37'10 9.8
2014-Oct-21 20:33N 31°57' W 117°37'9 9.4
2014-Oct-21 19:33N 32°06' W 117°39'10 9.7
2014-Oct-21 18:33N 32°16' W 117°40'10 9.5
2014-Oct-21 17:33N 32°25' W 117°42'8 8.4
2014-Oct-21 16:33N 32°32' W 117°48'9 8.7
2014-Oct-21 15:33N 32°40' W 117°51'9 9.3
2014-Oct-21 14:33N 32°49' W 117°54'9 9.4
2014-Oct-21 13:33N 32°58' W 117°58'9 9.5
2014-Oct-21 12:33N 33°07' W 118°01'10 9.7
2014-Oct-21 11:33N 33°16' W 118°05'9 9.5
2014-Oct-21 10:33N 33°25' W 118°09'10 9.7
2014-Oct-21 09:33N 33°34' W 118°13'9 9.2
2014-Oct-21 08:33N 33°43' W 118°11'2 1.8
2014-Oct-21 07:33N 33°44' W 118°13'0 0.0
2014-Oct-21 06:33N 33°44' W 118°13'0 0.1
2014-Oct-21 05:33N 33°44' W 118°13'0 0.0
2014-Oct-21 04:33N 33°44' W 118°13'0 0.1
2014-Oct-21 03:33N 33°44' W 118°13'0 0.0
2014-Oct-21 02:33N 33°44' W 118°13'0 0.0
2014-Oct-21 01:33N 33°44' W 118°13'0 0.0
2014-Oct-21 00:33N 33°44' W 118°13'0 0.0
2014-Oct-20 23:33N 33°44' W 118°13'0 0.0
2014-Oct-20 22:33N 33°44' W 118°13'0 0.1
2014-Oct-20 21:33N 33°44' W 118°13'0 0.0
2014-Oct-20 20:33N 33°44' W 118°13'0 0.0
2014-Oct-20 19:33N 33°44' W 118°13'0 0.2
2014-Oct-20 18:33N 33°43' W 118°13'0 0.0
2014-Oct-20 17:33N 33°43' W 118°13'0 0.1
2014-Oct-20 16:33N 33°43' W 118°13'15 7.4
2014-Oct-20 14:31N 33°29' W 118°07'1010.7
2014-Oct-20 13:33N 33°20' W 118°03'10 9.8
2014-Oct-20 12:33N 33°10' W 117°58'1211.6
2014-Oct-20 11:33N 32°60' W 117°53'1211.7
2014-Oct-20 10:33N 32°49' W 117°49'1211.6
2014-Oct-20 09:33N 32°38' W 117°45'1111.4
2014-Oct-20 08:33N 32°27' W 117°40'10 9.8
2014-Oct-20 07:33N 32°19' W 117°48'1111.1
2014-Oct-20 06:34N 32°13' W 117°58'1311.1
2014-Oct-20 05:25N 32°05' W 118°10'1011.1
2014-Oct-20 04:33N 31°60' W 118°20'1111.1
2014-Oct-20 03:33N 31°54' W 118°30'1211.1
2014-Oct-20 02:27N 31°46' W 118°42'1011.3
2014-Oct-20 01:33N 31°40' W 118°51'9 7.8
2014-Oct-20 00:26N 31°34' W 118°59'8 2.5
2014-Oct-19 21:21N 31°34' W 119°08'1 1.4
2014-Oct-19 20:27N 31°35' W 119°10'2 1.5
2014-Oct-19 19:22N 31°36' W 119°12'1 1.2
2014-Oct-19 18:25N 31°36' W 119°13'2 1.3
2014-Oct-19 17:11N 31°37' W 119°14'1 1.4
2014-Oct-19 16:23N 31°38' W 119°15'1 1.4
2014-Oct-19 15:23N 31°38' W 119°17'16 1.5
2014-Oct-19 04:30N 31°48' W 119°32'5 1.3
2014-Oct-19 01:07N 31°51' W 119°35'  
Track history (hours):
 
Tides and Currents Weather Stations Pressure Air Temp Water Temp Dewpoint Dewpoint Depression Visibility Wind Speed Wind Dir Waves Ship Positions

Overseas Mindoro

Last reported at 2014-Oct-22 10:29 UTC. Time now 2014-Oct-23 17:57 UTC.
Position N 29°43' W 117°25'.

Length 238 m; draft 8.2 m.

Type: Tanker. MMSI: 538003473.

Date/timePositionNaut miles runAvg speedWind from/ knotsBaromVisibWave heightAir tempDewpointWater temp
2014-Oct-22 10:29N 29°43' W 117°25'67 9.6
2014-Oct-22 03:31N 30°50' W 117°26'10 9.8
2014-Oct-22 02:29N 31°00' W 117°27'910.1
2014-Oct-22 01:33N 31°10' W 117°28'1010.1
2014-Oct-22 00:33N 31°18' W 117°34'10 9.8
2014-Oct-21 23:33N 31°27' W 117°38'1010.0
2014-Oct-21 22:33N 31°37' W 117°38'10 9.8
2014-Oct-21 21:33N 31°47' W 117°37'10 9.8
2014-Oct-21 20:33N 31°57' W 117°37'9 9.4
2014-Oct-21 19:33N 32°06' W 117°39'10 9.7
2014-Oct-21 18:33N 32°16' W 117°40'10 9.5
2014-Oct-21 17:33N 32°25' W 117°42'8 8.4
2014-Oct-21 16:33N 32°32' W 117°48'9 8.7
2014-Oct-21 15:33N 32°40' W 117°51'9 9.3
2014-Oct-21 14:33N 32°49' W 117°54'9 9.4
2014-Oct-21 13:33N 32°58' W 117°58'9 9.5
2014-Oct-21 12:33N 33°07' W 118°01'10 9.7
2014-Oct-21 11:33N 33°16' W 118°05'9 9.5
2014-Oct-21 10:33N 33°25' W 118°09'10 9.7
2014-Oct-21 09:33N 33°34' W 118°13'9 9.2
2014-Oct-21 08:33N 33°43' W 118°11'2 1.8
2014-Oct-21 07:33N 33°44' W 118°13'0 0.0
2014-Oct-21 06:33N 33°44' W 118°13'0 0.1
2014-Oct-21 05:33N 33°44' W 118°13'0 0.0
2014-Oct-21 04:33N 33°44' W 118°13'0 0.1
2014-Oct-21 03:33N 33°44' W 118°13'0 0.0
2014-Oct-21 02:33N 33°44' W 118°13'0 0.0
2014-Oct-21 01:33N 33°44' W 118°13'0 0.0
2014-Oct-21 00:33N 33°44' W 118°13'0 0.0
2014-Oct-20 23:33N 33°44' W 118°13'0 0.0
2014-Oct-20 22:33N 33°44' W 118°13'0 0.1
2014-Oct-20 21:33N 33°44' W 118°13'0 0.0
2014-Oct-20 20:33N 33°44' W 118°13'0 0.0
2014-Oct-20 19:33N 33°44' W 118°13'0 0.2
2014-Oct-20 18:33N 33°43' W 118°13'0 0.0
2014-Oct-20 17:33N 33°43' W 118°13'0 0.1
2014-Oct-20 16:33N 33°43' W 118°13'15 7.4
2014-Oct-20 14:31N 33°29' W 118°07'1010.7
2014-Oct-20 13:33N 33°20' W 118°03'10 9.8
2014-Oct-20 12:33N 33°10' W 117°58'1211.6
2014-Oct-20 11:33N 32°60' W 117°53'1211.7
2014-Oct-20 10:33N 32°49' W 117°49'1211.6
2014-Oct-20 09:33N 32°38' W 117°45'1111.4
2014-Oct-20 08:33N 32°27' W 117°40'10 9.8
2014-Oct-20 07:33N 32°19' W 117°48'1111.1
2014-Oct-20 06:34N 32°13' W 117°58'1311.1
2014-Oct-20 05:25N 32°05' W 118°10'1011.1
2014-Oct-20 04:33N 31°60' W 118°20'1111.1
2014-Oct-20 03:33N 31°54' W 118°30'1211.1
2014-Oct-20 02:27N 31°46' W 118°42'1011.3
2014-Oct-20 01:33N 31°40' W 118°51'9 7.8
2014-Oct-20 00:26N 31°34' W 118°59'8 2.5
2014-Oct-19 21:21N 31°34' W 119°08'1 1.4
2014-Oct-19 20:27N 31°35' W 119°10'2 1.5
2014-Oct-19 19:22N 31°36' W 119°12'1 1.2
2014-Oct-19 18:25N 31°36' W 119°13'2 1.3
2014-Oct-19 17:11N 31°37' W 119°14'1 1.4
2014-Oct-19 16:23N 31°38' W 119°15'1 1.4
2014-Oct-19 15:23N 31°38' W 119°17'16 1.5
2014-Oct-19 04:30N 31°48' W 119°32'5 1.3
2014-Oct-19 01:07N 31°51' W 119°35'  

Dump ship's entire track history